Kansas City North, Missouri
Current Conditions -  °F | °C
As of 8:54 AM on Thursday 30 Oct 2014 (Local Time) from KMKC Reporting Station
Overcast Overcast  
Wind Chill: 55°   Ceiling: 10000
Heat Index: 55°   Visibility: 10mi
Dew Point: 41°   Wind: 5mph
Humidity: 59%   Direction: 230°SW
Pressure: 30.02"   Gusts: NA
Location:  39.1657°N, 94.5231°W
Report Text: KMKC 301354Z 23004KT 10SM FEW055 SCT075 OVC100 13/05 A3002 RMK AO2 SLP165 T01280050
Loading
Personal Weather Stations






























Interactive Weather Map
Tropical Storm Tracking
New forecast layout! Learn more

10-Day Weather Forecast

Advertisements
Track Severe Weather on mobile